Time;durP1;ratioP1;P1;durP2;ratioP2;P2;SDS_P1;SDS_P2;PMS_P1;PMS_P2;Temp;Humidity;BMP_temperature;BMP_pressure;BME280_temperature;BME280_humidity;BME280_pressure;Samples;Min_cycle;Max_cycle;Signal;HPM_P1;HPM_P2
2022/02/20 00:01:07;;;;;;;8.68;2.95;;;;;;;22.11;11.99;98091.34;5052141;28;20032;-80
2022/02/20 00:03:33;;;;;;;6.97;2.42;;;;;;;22.28;11.66;98086.72;5073074;28;20081;-80
2022/02/20 00:06:00;;;;;;;11.05;3.10;;;;;;;22.32;11.69;98084.66;5072113;28;20086;-80
2022/02/20 00:08:26;;;;;;;7.32;2.30;;;;;;;22.51;11.52;98090.38;5072187;28;20750;-80
2022/02/20 00:10:52;;;;;;;8.73;2.92;;;;;;;22.67;11.49;98084.94;5066938;28;20040;-79
2022/02/20 00:13:19;;;;;;;6.15;2.10;;;;;;;22.68;11.53;98092.09;5071576;28;20041;-80
2022/02/20 00:15:45;;;;;;;7.30;2.25;;;;;;;22.75;11.58;98082.03;5072755;28;20029;-79
2022/02/20 00:18:11;;;;;;;6.28;2.00;;;;;;;22.14;11.76;98084.13;5072227;28;20065;-79
2022/02/20 00:20:37;;;;;;;7.90;2.22;;;;;;;22.07;11.87;98085.03;5073074;28;20031;-79
2022/02/20 00:23:04;;;;;;;5.18;1.77;;;;;;;22.05;11.78;98087.44;5072070;28;20115;-79
2022/02/20 00:25:31;;;;;;;6.60;2.05;;;;;;;22.09;11.64;98076.22;5072899;28;20056;-79
2022/02/20 00:28:03;;;;;;;8.10;1.70;;;;;;;21.83;11.81;98080.50;5072615;28;20040;-79
2022/02/20 00:30:30;;;;;;;5.40;1.70;;;;;;;22.04;11.94;98077.47;5072419;28;20103;-80
2022/02/20 00:33:00;;;;;;;6.82;1.52;;;;;;;22.00;11.93;98068.34;5072887;28;20029;-80
2022/02/20 00:35:33;;;;;;;5.68;1.73;;;;;;;22.22;11.78;98066.03;5072354;28;20044;-80
2022/02/20 00:37:59;;;;;;;6.32;1.80;;;;;;;22.45;11.52;98058.47;5072394;28;20067;-80
2022/02/20 00:40:27;;;;;;;5.53;1.90;;;;;;;22.66;11.26;98066.56;5071739;28;20549;-80
2022/02/20 00:42:53;;;;;;;6.47;1.80;;;;;;;22.63;11.42;98055.44;5058325;28;20478;-82
2022/02/20 00:45:19;;;;;;;3.97;1.50;;;;;;;22.46;11.45;98059.25;5072188;28;20482;-81
2022/02/20 00:47:45;;;;;;;7.57;1.90;;;;;;;22.22;11.63;98055.63;5072480;28;20029;-80
2022/02/20 00:50:12;;;;;;;4.43;1.42;;;;;;;22.38;11.59;98052.97;5071931;28;20401;-80
2022/02/20 00:52:38;;;;;;;3.65;1.45;;;;;;;22.41;11.64;98054.94;5072621;28;20035;-80
2022/02/20 00:55:05;;;;;;;6.72;1.90;;;;;;;22.11;11.70;98048.63;5074076;28;20043;-80
2022/02/20 00:57:31;;;;;;;3.35;1.60;;;;;;;22.12;11.64;98050.22;5071356;28;20397;-80
2022/02/20 00:59:57;;;;;;;7.38;1.88;;;;;;;22.32;11.51;98051.09;5072962;28;20518;-79
2022/02/20 01:02:23;;;;;;;5.68;1.65;;;;;;;22.29;11.78;98041.53;5046465;28;20040;-80
2022/02/20 01:04:50;;;;;;;4.03;1.63;;;;;;;22.20;11.62;98044.06;5057918;28;20037;-79
2022/02/20 01:07:18;;;;;;;7.82;1.77;;;;;;;22.11;11.86;98038.22;5080981;28;20032;-79
2022/02/20 01:09:44;;;;;;;5.45;1.48;;;;;;;22.01;11.64;98039.97;5066532;28;20032;-79
2022/02/20 01:12:11;;;;;;;3.85;1.60;;;;;;;21.84;11.84;98034.63;5068508;28;20037;-79
2022/02/20 01:14:37;;;;;;;5.85;1.63;;;;;;;21.79;11.85;98043.44;5071902;28;20045;-79
2022/02/20 01:17:04;;;;;;;7.38;2.10;;;;;;;21.98;11.76;98021.22;5069015;28;20484;-80
2022/02/20 01:19:30;;;;;;;4.78;1.48;;;;;;;21.98;11.80;98021.22;5072585;28;20112;-80
2022/02/20 01:21:56;;;;;;;4.22;1.73;;;;;;;22.09;11.82;98023.88;5064823;28;20061;-80
2022/02/20 01:24:22;;;;;;;7.07;2.03;;;;;;;22.11;11.81;98023.44;5068845;28;20040;-80
2022/02/20 01:26:48;;;;;;;4.18;1.50;;;;;;;22.19;11.86;98013.75;5068884;28;20033;-79
2022/02/20 01:29:14;;;;;;;9.90;2.33;;;;;;;22.30;11.74;98008.78;5067524;28;20044;-80
2022/02/20 01:31:40;;;;;;;5.63;1.38;;;;;;;22.10;11.83;98016.28;5068472;28;20090;-80
2022/02/20 01:34:07;;;;;;;4.90;1.77;;;;;;;22.13;11.77;97996.66;5067342;28;20036;-80
2022/02/20 01:36:33;;;;;;;4.95;1.67;;;;;;;22.30;11.53;97998.38;5068866;28;20032;-80
2022/02/20 01:38:59;;;;;;;5.18;1.77;;;;;;;22.48;11.38;97990.47;5069206;28;20038;-80
2022/02/20 01:41:25;;;;;;;5.25;1.70;;;;;;;22.01;11.78;97988.84;5067206;28;20040;-80
2022/02/20 01:43:54;;;;;;;4.85;1.45;;;;;;;21.92;11.83;97985.78;5066143;28;20063;-80
2022/02/20 01:46:21;;;;;;;4.45;1.75;;;;;;;22.11;11.69;97989.88;5066248;28;20032;-79
2022/02/20 01:48:48;;;;;;;5.50;1.88;;;;;;;21.98;11.90;97975.72;5069058;28;20044;-79
2022/02/20 01:51:14;;;;;;;6.65;2.08;;;;;;;22.03;11.85;97975.25;5067317;28;20029;-79
2022/02/20 01:53:41;;;;;;;5.20;1.58;;;;;;;22.02;11.90;97974.44;5068495;28;20036;-79
2022/02/20 01:56:07;;;;;;;6.63;1.73;;;;;;;21.76;12.08;97968.81;5050603;28;20078;-79
2022/02/20 01:58:33;;;;;;;3.03;1.27;;;;;;;21.83;12.09;97968.72;5066382;28;20036;-79
2022/02/20 02:01:01;;;;;;;5.53;2.17;;;;;;;22.08;11.77;97966.38;5067267;28;20540;-79
2022/02/20 02:03:27;;;;;;;6.00;2.05;;;;;;;22.34;11.73;97956.34;5069461;28;20150;-79
2022/02/20 02:05:53;;;;;;;4.88;1.60;;;;;;;22.43;11.67;97954.59;5071843;28;20377;-79
2022/02/20 02:08:19;;;;;;;4.65;1.63;;;;;;;22.40;11.49;97952.66;5073004;28;20090;-79
2022/02/20 02:10:46;;;;;;;5.45;1.48;;;;;;;22.10;11.81;97941.56;5069260;28;20040;-79
2022/02/20 02:13:12;;;;;;;6.72;1.45;;;;;;;21.74;11.95;97938.50;5068187;28;20078;-80
2022/02/20 02:15:56;;;;;;;6.38;1.35;;;;;;;21.61;12.13;97936.72;5071211;28;20044;-79
2022/02/20 02:18:22;;;;;;;5.57;1.35;;;;;;;21.67;12.03;97947.00;5051630;28;20057;-79
2022/02/20 02:20:48;;;;;;;3.17;0.93;;;;;;;21.66;12.03;97939.81;5071185;28;20086;-80
2022/02/20 02:23:17;;;;;;;4.45;1.40;;;;;;;21.60;12.10;97933.13;5068101;28;20040;-79
2022/02/20 02:25:44;;;;;;;3.05;1.10;;;;;;;21.69;12.07;97933.38;5072481;28;20031;-79
2022/02/20 02:28:10;;;;;;;6.18;1.55;;;;;;;21.60;12.09;97926.75;5071031;28;20017;-79
2022/02/20 02:30:37;;;;;;;4.93;1.38;;;;;;;21.56;12.21;97920.41;5074551;28;20028;-79
2022/02/20 02:33:03;;;;;;;3.92;0.90;;;;;;;21.20;12.26;97929.28;5075189;28;20444;-79
2022/02/20 02:35:29;;;;;;;1.90;0.77;;;;;;;21.45;12.22;97931.72;5073307;28;20024;-79
2022/02/20 02:37:55;;;;;;;3.50;1.08;;;;;;;21.84;11.97;97936.81;5074345;28;20367;-79
2022/02/20 02:40:21;;;;;;;3.42;1.20;;;;;;;22.18;11.75;97933.84;5056284;28;20029;-79
2022/02/20 02:42:48;;;;;;;1.48;0.80;;;;;;;22.46;11.62;97928.56;5073508;28;20051;-80
2022/02/20 02:45:14;;;;;;;3.10;1.10;;;;;;;22.54;11.47;97929.25;5066367;28;20040;-79
2022/02/20 02:47:47;;;;;;;3.03;1.20;;;;;;;22.44;11.49;97925.41;5071901;28;20033;-80
2022/02/20 02:50:13;;;;;;;1.70;0.80;;;;;;;22.42;11.64;97922.25;5070204;28;20082;-79
2022/02/20 02:52:39;;;;;;;2.28;0.70;;;;;;;22.12;11.71;97913.19;5070147;28;20036;-79
2022/02/20 02:55:06;;;;;;;2.92;1.00;;;;;;;22.17;11.58;97913.47;5072506;28;20112;-80
2022/02/20 02:57:32;;;;;;;2.10;0.77;;;;;;;22.12;12.02;97902.81;5073618;28;20024;-80
2022/02/20 02:59:59;;;;;;;2.85;1.23;;;;;;;22.11;12.01;97900.41;5070428;28;20032;-80
2022/02/20 03:02:26;;;;;;;3.60;1.00;;;;;;;22.06;11.95;97892.50;5059227;28;20444;-80
2022/02/20 03:04:52;;;;;;;1.60;0.70;;;;;;;21.90;12.00;97888.38;5072001;28;20106;-80
2022/02/20 03:07:18;;;;;;;1.75;0.70;;;;;;;21.68;12.15;97881.50;5070148;28;20517;-80
2022/02/20 03:09:44;;;;;;;4.63;0.85;;;;;;;21.45;12.28;97881.44;5069443;28;20097;-80
2022/02/20 03:12:10;;;;;;;3.22;0.75;;;;;;;21.56;12.23;97870.94;5070552;28;20028;-80
2022/02/20 03:14:36;;;;;;;2.80;0.75;;;;;;;22.01;11.90;97869.41;5069358;28;20041;-80
2022/02/20 03:17:02;;;;;;;1.30;0.70;;;;;;;22.45;11.49;97856.28;5072190;28;20032;-79
2022/02/20 03:19:29;;;;;;;1.58;0.63;;;;;;;22.54;11.56;97851.66;5068763;28;20075;-80
2022/02/20 03:21:55;;;;;;;3.78;0.90;;;;;;;22.29;11.80;97845.75;5070460;28;20039;-80
2022/02/20 03:24:21;;;;;;;1.98;0.70;;;;;;;22.33;11.60;97843.69;5064975;28;20037;-79
2022/02/20 03:26:47;;;;;;;3.50;0.70;;;;;;;22.35;11.49;97846.06;5070108;28;20119;-79
2022/02/20 03:29:13;;;;;;;3.00;0.80;;;;;;;22.18;11.70;97836.78;5070171;28;20036;-79
2022/02/20 03:31:39;;;;;;;4.05;0.93;;;;;;;21.91;11.94;97833.28;5071643;28;20032;-79
2022/02/20 03:34:05;;;;;;;1.90;0.70;;;;;;;21.87;11.95;97841.72;5069683;28;20131;-79
2022/02/20 03:36:32;;;;;;;2.63;1.00;;;;;;;21.32;12.24;97833.78;5070744;28;20401;-79
2022/02/20 03:38:58;;;;;;;2.15;0.60;;;;;;;21.71;12.21;97832.38;5062598;28;20096;-79
2022/02/20 03:41:24;;;;;;;2.55;0.98;;;;;;;21.71;12.18;97829.56;5068934;28;21763;-79
2022/02/20 03:43:50;;;;;;;4.43;1.15;;;;;;;21.77;12.14;97825.91;5069458;28;20143;-79
2022/02/20 03:46:18;;;;;;;1.55;0.50;;;;;;;21.91;12.17;97819.28;5071147;28;20481;-79
2022/02/20 03:48:44;;;;;;;1.75;0.70;;;;;;;22.21;11.90;97823.94;5072611;28;20035;-78
2022/02/20 03:51:10;;;;;;;1.65;0.80;;;;;;;22.45;11.58;97823.47;5069132;28;20439;-80
2022/02/20 03:53:36;;;;;;;1.83;0.73;;;;;;;22.70;11.38;97831.41;5086382;28;20447;-80
2022/02/20 03:56:02;;;;;;;2.42;1.08;;;;;;;22.37;11.76;97816.44;5069917;28;20040;-80
2022/02/20 03:58:28;;;;;;;1.65;0.60;;;;;;;22.17;11.99;97814.84;5069004;28;20047;-80
2022/02/20 04:00:55;;;;;;;1.77;0.63;;;;;;;22.48;11.75;97808.63;5070106;28;20036;-80
2022/02/20 04:03:21;;;;;;;3.15;0.80;;;;;;;22.77;11.38;97803.28;5054764;28;20417;-80
2022/02/20 04:05:47;;;;;;;4.60;0.85;;;;;;;23.04;11.43;97803.09;5069684;28;20524;-80
2022/02/20 04:08:13;;;;;;;1.23;0.55;;;;;;;22.83;11.47;97801.53;5053784;28;20082;-80
2022/02/20 04:10:39;;;;;;;1.85;0.70;;;;;;;22.88;11.41;97803.84;5072836;28;20053;-80
2022/02/20 04:13:05;;;;;;;2.00;0.80;;;;;;;22.59;11.79;97803.59;5053327;28;20378;-80
2022/02/20 04:15:31;;;;;;;2.22;0.77;;;;;;;22.55;11.61;97791.69;5071587;28;20033;-80
2022/02/20 04:17:57;;;;;;;3.72;0.75;;;;;;;22.58;11.63;97782.44;5071544;28;20446;-80
2022/02/20 04:20:23;;;;;;;1.85;0.60;;;;;;;22.55;11.56;97783.31;5079115;28;20090;-80
2022/02/20 04:22:50;;;;;;;2.08;0.90;;;;;;;22.30;11.84;97771.03;5068770;28;20032;-79
2022/02/20 04:25:16;;;;;;;2.80;0.73;;;;;;;22.03;12.27;97768.38;5068852;28;20128;-80
2022/02/20 04:27:43;;;;;;;2.75;0.70;;;;;;;22.21;12.02;97756.84;5071605;28;20036;-80
2022/02/20 04:30:10;;;;;;;2.97;1.00;;;;;;;22.32;11.85;97755.41;5067608;28;20501;-80
2022/02/20 04:32:37;;;;;;;2.92;0.90;;;;;;;22.47;11.75;97756.72;5070778;28;20069;-81
2022/02/20 04:35:04;;;;;;;2.40;0.70;;;;;;;22.46;11.85;97749.53;5057294;28;20029;-81
2022/02/20 04:37:30;;;;;;;3.35;0.80;;;;;;;22.69;11.51;97748.66;5068647;28;20099;-80
2022/02/20 04:39:56;;;;;;;3.13;0.52;;;;;;;22.67;11.52;97749.09;5070244;28;20032;-81
2022/02/20 04:42:22;;;;;;;2.13;0.60;;;;;;;22.50;11.81;97738.25;5072277;28;20032;-81
2022/02/20 04:44:49;;;;;;;1.40;0.60;;;;;;;22.71;11.54;97749.00;5069651;28;20494;-80
2022/02/20 04:47:15;;;;;;;1.20;0.40;;;;;;;22.94;11.47;97748.91;5075434;28;20382;-81
2022/02/20 04:49:41;;;;;;;2.28;0.70;;;;;;;22.69;11.47;97741.06;5068982;28;20173;-80
2022/02/20 04:52:07;;;;;;;1.13;0.60;;;;;;;22.60;11.65;97740.03;5067166;28;20028;-81
2022/02/20 04:54:33;;;;;;;2.10;0.77;;;;;;;22.80;11.55;97737.25;5068089;28;20028;-80
2022/02/20 04:56:59;;;;;;;1.27;0.40;;;;;;;22.91;11.54;97744.19;5064311;28;20029;-81
2022/02/20 04:59:25;;;;;;;1.25;0.60;;;;;;;22.90;11.62;97727.81;5068736;28;21716;-81
2022/02/20 05:01:51;;;;;;;1.88;0.40;;;;;;;22.90;11.56;97723.00;5050351;28;20394;-81
2022/02/20 05:04:17;;;;;;;2.15;0.50;;;;;;;22.94;11.47;97718.09;5068474;28;20085;-80
2022/02/20 05:06:43;;;;;;;4.90;0.70;;;;;;;22.84;11.63;97709.97;5065133;28;20029;-81
2022/02/20 05:09:09;;;;;;;2.30;0.50;;;;;;;22.75;11.77;97712.56;5066756;28;20040;-80
2022/02/20 05:11:36;;;;;;;3.13;0.95;;;;;;;22.76;11.65;97700.13;5067369;28;20090;-80
2022/02/20 05:14:02;;;;;;;0.60;0.40;;;;;;;22.67;11.55;97686.75;5065333;28;20372;-81
2022/02/20 05:16:30;;;;;;;1.98;0.50;;;;;;;22.62;12.22;97681.66;5064246;28;20036;-80
2022/02/20 05:18:57;;;;;;;0.52;0.40;;;;;;;22.98;11.86;97687.22;5066650;28;20033;-80
2022/02/20 05:21:23;;;;;;;5.03;0.52;;;;;;;22.75;11.84;97679.78;5052095;28;20043;-80
2022/02/20 05:23:49;;;;;;;0.75;0.50;;;;;;;22.43;12.04;97674.06;5083520;28;20401;-80
2022/02/20 05:26:15;;;;;;;1.02;0.47;;;;;;;22.50;12.21;97669.09;5067845;28;20033;-80
2022/02/20 05:28:41;;;;;;;1.33;0.50;;;;;;;22.46;12.13;97668.41;5062988;28;20044;-80
2022/02/20 05:31:08;;;;;;;1.40;0.50;;;;;;;22.53;12.30;97659.84;5066188;28;20028;-80
2022/02/20 05:33:34;;;;;;;2.05;0.50;;;;;;;22.26;12.29;97655.66;5065338;28;20032;-80
2022/02/20 05:36:00;;;;;;;1.58;0.52;;;;;;;21.90;12.74;97648.00;5065152;28;20033;-80
2022/02/20 05:38:26;;;;;;;3.45;0.80;;;;;;;21.46;12.99;97630.88;5068490;28;20505;-80
2022/02/20 05:40:52;;;;;;;1.48;0.52;;;;;;;21.89;12.98;97631.66;5070963;28;20028;-80
2022/02/20 05:43:19;;;;;;;2.75;0.70;;;;;;;22.19;12.63;97628.63;5064623;28;20642;-81
2022/02/20 05:45:45;;;;;;;1.25;0.60;;;;;;;22.52;12.19;97615.53;5064020;28;20028;-80
2022/02/20 05:48:11;;;;;;;1.42;0.60;;;;;;;22.48;12.54;97603.59;5062689;28;20107;-80
2022/02/20 05:50:37;;;;;;;3.35;0.63;;;;;;;22.73;12.42;97603.88;5063771;28;20035;-80
2022/02/20 05:53:03;;;;;;;1.40;0.57;;;;;;;21.97;13.07;97599.53;5066464;28;20029;-80
2022/02/20 05:55:29;;;;;;;0.93;0.50;;;;;;;22.75;12.42;97609.00;5045028;28;20039;-80
2022/02/20 05:57:57;;;;;;;4.15;0.82;;;;;;;22.92;12.26;97605.75;5068275;28;20454;-80
2022/02/20 06:00:25;;;;;;;1.70;0.55;;;;;;;22.78;12.16;97592.13;5066568;28;20036;-80
2022/02/20 06:02:52;;;;;;;3.10;0.68;;;;;;;22.43;12.56;97590.13;5068829;28;20113;-80
2022/02/20 06:05:18;;;;;;;0.85;0.35;;;;;;;22.64;12.31;97587.66;5067147;28;20039;-80
2022/02/20 06:07:44;;;;;;;1.30;0.50;;;;;;;22.79;12.20;97581.72;5068204;28;20033;-81
2022/02/20 06:10:11;;;;;;;2.15;0.57;;;;;;;22.50;12.52;97579.56;5071121;28;20024;-81
2022/02/20 06:12:38;;;;;;;1.90;0.40;;;;;;;22.54;12.25;97582.28;5067205;28;20470;-81
2022/02/20 06:15:07;;;;;;;1.90;0.55;;;;;;;22.45;12.21;97570.94;5065867;28;20060;-80
2022/02/20 06:17:33;;;;;;;2.05;1.00;;;;;;;23.00;12.14;97564.38;5068487;28;20044;-81
2022/02/20 06:19:59;;;;;;;2.35;0.68;;;;;;;23.32;11.89;97565.13;5066798;28;20037;-80
2022/02/20 06:22:25;;;;;;;0.75;0.25;;;;;;;22.93;11.73;97565.38;5067293;28;20028;-81
2022/02/20 06:24:51;;;;;;;0.50;0.40;;;;;;;23.70;11.59;97554.09;5067720;28;20048;-80
2022/02/20 06:27:18;;;;;;;1.70;0.50;;;;;;;24.00;11.40;97561.22;5068440;28;20047;-80
2022/02/20 06:29:44;;;;;;;1.60;0.50;;;;;;;24.44;11.08;97553.88;5069385;28;20060;-79
2022/02/20 06:32:10;;;;;;;1.67;0.70;;;;;;;24.74;10.92;97562.50;5070204;28;20051;-80
2022/02/20 06:34:36;;;;;;;1.02;0.43;;;;;;;24.80;10.72;97561.97;5070443;28;20501;-80
2022/02/20 06:37:03;;;;;;;0.90;0.40;;;;;;;24.84;10.70;97555.00;5076036;28;20043;-80
2022/02/20 06:39:31;;;;;;;3.00;0.65;;;;;;;24.73;11.14;97566.56;5069180;28;20043;-80
2022/02/20 06:41:57;;;;;;;1.83;0.50;;;;;;;24.44;11.13;97567.91;5062793;28;20039;-80
2022/02/20 06:44:23;;;;;;;3.55;0.43;;;;;;;24.04;11.64;97561.88;5064239;28;20055;-80
2022/02/20 06:46:50;;;;;;;2.30;0.50;;;;;;;23.95;11.63;97561.75;5063855;28;20043;-80
2022/02/20 06:49:16;;;;;;;3.67;0.70;;;;;;;24.23;11.60;97563.75;5064382;28;20033;-80
2022/02/20 06:51:42;;;;;;;1.13;0.60;;;;;;;24.56;11.53;97565.09;5072228;28;20115;-80
2022/02/20 06:54:08;;;;;;;5.47;0.95;;;;;;;23.80;11.93;97575.44;5072114;28;20051;-81
2022/02/20 06:56:34;;;;;;;2.38;0.50;;;;;;;23.20;12.42;97571.44;5070539;28;20029;-81
2022/02/20 06:59:00;;;;;;;3.72;0.77;;;;;;;23.03;12.40;97567.09;5066340;28;20040;-79
2022/02/20 07:01:27;;;;;;;0.65;0.60;;;;;;;22.15;13.77;97579.59;5071311;28;20055;-80
2022/02/20 07:03:53;;;;;;;8.20;0.77;;;;;;;21.98;13.93;97564.78;5070038;28;20032;-80
2022/02/20 07:06:19;;;;;;;3.92;0.90;;;;;;;21.23;14.64;97582.22;5051179;28;20582;-80
2022/02/20 07:08:45;;;;;;;3.08;0.73;;;;;;;20.27;15.90;97576.63;5070899;28;20028;-80
2022/02/20 07:11:11;;;;;;;3.70;0.90;;;;;;;20.27;16.30;97584.19;5069254;28;20072;-80
2022/02/20 07:13:37;;;;;;;3.42;0.88;;;;;;;18.94;17.80;97593.66;5070212;28;20036;-80
2022/02/20 07:16:03;;;;;;;3.72;0.90;;;;;;;20.42;17.14;97599.50;5067852;28;20036;-80
2022/02/20 07:18:30;;;;;;;6.00;0.88;;;;;;;18.91;19.34;97577.78;5071010;28;20045;-80
2022/02/20 07:20:56;;;;;;;2.03;0.68;;;;;;;19.03;19.02;97607.09;5071551;28;20434;-79
2022/02/20 07:23:22;;;;;;;5.75;0.90;;;;;;;20.25;18.70;97604.13;5071362;28;20520;-79
2022/02/20 07:25:48;;;;;;;3.25;1.15;;;;;;;19.57;19.80;97603.38;5069672;28;20076;-80
2022/02/20 07:28:14;;;;;;;4.68;0.95;;;;;;;20.13;19.28;97604.66;5054264;28;20025;-80
2022/02/20 07:30:41;;;;;;;1.33;0.80;;;;;;;20.84;18.83;97598.06;5072694;28;20035;-80
2022/02/20 07:33:08;;;;;;;1.83;0.95;;;;;;;21.05;18.65;97606.09;5071598;28;20371;-80
2022/02/20 07:35:38;;;;;;;2.28;0.90;;;;;;;20.83;18.93;97607.63;5072427;28;20553;-80
2022/02/20 07:38:07;;;;;;;2.97;0.85;;;;;;;22.07;17.81;97604.13;5056900;28;20027;-80
2022/02/20 07:40:34;;;;;;;3.67;0.70;;;;;;;22.01;17.85;97606.63;5073397;28;20036;-80
2022/02/20 07:43:00;;;;;;;2.10;0.85;;;;;;;22.31;17.33;97597.19;5087712;28;20029;-80
2022/02/20 07:45:26;;;;;;;5.15;1.00;;;;;;;22.43;17.67;97604.91;5072720;28;20121;-80
2022/02/20 07:48:00;;;;;;;2.70;1.10;;;;;;;22.61;17.82;97610.91;5068968;28;20036;-80
2022/02/20 07:50:29;;;;;;;4.43;1.48;;;;;;;21.63;18.93;97599.03;5066974;28;20036;-80
2022/02/20 07:52:56;;;;;;;2.28;1.23;;;;;;;21.87;19.12;97606.13;5071060;28;20037;-80
2022/02/20 07:55:23;;;;;;;2.30;1.00;;;;;;;21.07;19.77;97609.25;5071325;28;20401;-80
2022/02/20 07:57:50;;;;;;;1.55;0.68;;;;;;;21.39;19.81;97603.88;5068962;28;20029;-80
2022/02/20 08:00:19;;;;;;;1.67;0.60;;;;;;;21.76;19.25;97602.75;5072447;28;20024;-81
2022/02/20 08:02:46;;;;;;;1.70;0.73;;;;;;;21.89;19.52;97617.69;5071184;28;20041;-81
2022/02/20 08:05:12;;;;;;;2.63;0.80;;;;;;;21.01;20.49;97608.91;5074272;28;20024;-81
2022/02/20 08:07:38;;;;;;;2.40;0.60;;;;;;;20.77;20.88;97614.91;5070332;28;20040;-81
2022/02/20 08:10:06;;;;;;;2.65;1.02;;;;;;;20.57;21.43;97626.75;5071212;28;20497;-81
2022/02/20 08:12:32;;;;;;;0.98;0.55;;;;;;;20.72;21.42;97612.59;5069829;28;20031;-80
2022/02/20 08:14:59;;;;;;;1.65;0.77;;;;;;;20.50;21.33;97620.47;5049714;28;20036;-81
2022/02/20 08:17:25;;;;;;;1.02;0.68;;;;;;;21.59;20.52;97617.84;5052238;28;20051;-80
2022/02/20 08:19:52;;;;;;;1.10;0.93;;;;;;;21.44;20.83;97619.34;5068471;28;20028;-80
2022/02/20 08:22:18;;;;;;;0.85;0.63;;;;;;;22.07;20.02;97622.91;5068909;28;20032;-80
2022/02/20 08:24:45;;;;;;;0.95;0.70;;;;;;;21.47;20.96;97630.44;5052013;28;20033;-79
2022/02/20 08:27:13;;;;;;;1.83;0.80;;;;;;;22.12;20.51;97631.59;5079471;28;20037;-79
2022/02/20 08:29:40;;;;;;;2.05;1.00;;;;;;;22.91;19.99;97634.22;5076632;28;20043;-80
2022/02/20 08:32:06;;;;;;;1.48;0.82;;;;;;;22.68;19.70;97623.97;5074355;28;20035;-79
2022/02/20 08:34:33;;;;;;;1.60;0.90;;;;;;;22.85;19.68;97628.34;5060490;28;20028;-79
2022/02/20 08:37:00;;;;;;;1.40;0.70;;;;;;;21.68;20.75;97632.06;5082847;28;20435;-80
2022/02/20 08:39:28;;;;;;;2.20;1.00;;;;;;;22.57;20.40;97643.75;5071547;28;20386;-79
2022/02/20 08:41:54;;;;;;;1.52;0.60;;;;;;;21.60;21.46;97625.81;5072471;28;20035;-79
2022/02/20 08:44:20;;;;;;;0.70;0.50;;;;;;;21.38;21.94;97633.00;5056280;28;20076;-79
2022/02/20 08:46:46;;;;;;;0.93;0.68;;;;;;;21.33;21.58;97641.91;5072472;28;20397;-79
2022/02/20 08:49:12;;;;;;;0.82;0.63;;;;;;;21.18;22.00;97627.38;5069534;28;20032;-78
2022/02/20 08:51:38;;;;;;;1.05;0.60;;;;;;;21.85;21.21;97630.94;5070012;28;20032;-78
2022/02/20 08:54:05;;;;;;;0.95;0.60;;;;;;;21.56;21.91;97629.91;5066588;28;20170;-78
2022/02/20 08:56:31;;;;;;;2.45;1.15;;;;;;;22.19;21.04;97631.44;5072823;28;20037;-79
2022/02/20 08:59:00;;;;;;;1.00;0.50;;;;;;;22.20;20.16;97627.41;5071160;28;20036;-79
2022/02/20 09:01:28;;;;;;;0.60;0.57;;;;;;;23.23;19.90;97637.78;5069431;28;20040;-79
2022/02/20 09:04:02;;;;;;;1.85;0.70;;;;;;;22.64;20.00;97626.03;5070661;28;20486;-79
2022/02/20 09:06:29;;;;;;;0.80;0.50;;;;;;;22.81;20.25;97632.44;5054419;28;20040;-80
2022/02/20 09:08:56;;;;;;;1.38;0.70;;;;;;;22.72;20.01;97633.06;5068971;28;20117;-80
2022/02/20 09:11:23;;;;;;;1.02;0.80;;;;;;;22.91;20.20;97642.59;5069186;28;20024;-80
2022/02/20 09:13:50;;;;;;;1.10;0.60;;;;;;;23.26;19.78;97645.31;5066367;28;20033;-80
2022/02/20 09:16:16;;;;;;;1.65;0.90;;;;;;;23.50;19.42;97636.75;5066764;28;20385;-80
2022/02/20 09:18:42;;;;;;;1.75;0.80;;;;;;;23.66;19.55;97645.09;5067443;28;20035;-80
2022/02/20 09:21:09;;;;;;;2.85;1.05;;;;;;;23.04;20.10;97647.06;5067817;28;20571;-80
2022/02/20 09:23:35;;;;;;;0.88;0.75;;;;;;;23.48;20.11;97642.00;5072896;28;20526;-80
2022/02/20 09:26:01;;;;;;;0.75;0.57;;;;;;;23.77;19.63;97642.78;5069571;28;20036;-80
2022/02/20 09:28:28;;;;;;;1.15;0.82;;;;;;;23.92;19.59;97647.56;5066471;28;20025;-79
2022/02/20 09:30:54;;;;;;;2.22;0.90;;;;;;;23.19;20.22;97650.31;5063986;28;21051;-80
2022/02/20 09:33:20;;;;;;;1.67;0.80;;;;;;;23.21;20.51;97653.47;5070911;28;20056;-80
2022/02/20 09:35:46;;;;;;;1.73;0.90;;;;;;;22.30;20.92;97648.78;5071148;28;20025;-79
2022/02/20 09:38:12;;;;;;;2.72;0.85;;;;;;;23.18;20.41;97651.53;5068787;28;20039;-79
2022/02/20 09:40:39;;;;;;;3.97;1.27;;;;;;;23.65;19.74;97646.31;5065203;28;20162;-79
2022/02/20 09:43:05;;;;;;;1.15;0.73;;;;;;;23.72;19.50;97648.94;5064967;28;20028;-80
2022/02/20 09:45:31;;;;;;;1.88;0.75;;;;;;;23.97;19.50;97649.03;5068445;28;20032;-79
2022/02/20 09:48:07;;;;;;;2.47;1.15;;;;;;;23.49;19.76;97649.97;5070273;28;20043;-78
2022/02/20 09:50:33;;;;;;;0.80;0.63;;;;;;;23.66;19.75;97656.31;5065650;28;20076;-79
2022/02/20 09:52:59;;;;;;;3.10;1.15;;;;;;;23.31;19.67;97649.59;5069567;28;20103;-80
2022/02/20 09:55:25;;;;;;;2.03;0.88;;;;;;;23.03;20.31;97665.13;5049379;28;20048;-79
2022/02/20 09:57:51;;;;;;;2.15;0.98;;;;;;;23.76;19.86;97656.03;5068198;28;20166;-79
2022/02/20 10:00:18;;;;;;;2.15;0.98;;;;;;;24.07;19.45;97655.59;5065681;28;20041;-79
2022/02/20 10:02:46;;;;;;;2.60;1.00;;;;;;;24.22;19.54;97660.38;5058831;28;20040;-80
2022/02/20 10:05:21;;;;;;;2.60;0.90;;;;;;;23.66;20.76;97654.31;5064646;28;20411;-79
2022/02/20 10:07:48;;;;;;;2.17;0.70;;;;;;;24.46;19.74;97649.63;5062632;28;20033;-79
2022/02/20 10:10:17;;;;;;;1.27;0.63;;;;;;;23.96;20.07;97653.88;5066461;28;20246;-79
2022/02/20 10:12:44;;;;;;;1.85;0.93;;;;;;;24.67;19.21;97651.78;5064801;28;20032;-79
2022/02/20 10:15:32;;;;;;;1.58;1.00;;;;;;;24.60;19.35;97649.19;5064991;28;20039;-79
2022/02/20 10:18:13;;;;;;;1.42;0.90;;;;;;;23.98;19.67;97654.22;5061828;28;20434;-79
2022/02/20 10:20:39;;;;;;;1.73;1.00;;;;;;;23.52;20.13;97643.47;5062123;28;20040;-79
2022/02/20 10:23:14;;;;;;;0.80;0.70;;;;;;;24.07;19.73;97650.78;5061151;28;20090;-78
2022/02/20 10:25:42;;;;;;;0.95;0.80;;;;;;;24.48;19.58;97655.59;5066136;28;20038;-79
2022/02/20 10:28:08;;;;;;;1.08;0.82;;;;;;;24.24;19.79;97649.50;5065248;28;20394;-79
2022/02/20 10:30:35;;;;;;;1.42;0.70;;;;;;;23.54;20.23;97657.03;5064773;28;21418;-78
2022/02/20 10:33:24;;;;;;;1.58;0.90;;;;;;;23.58;20.47;97666.94;5066036;28;20140;-78
2022/02/20 10:35:52;;;;;;;2.38;0.95;;;;;;;23.91;19.75;97659.22;5064688;28;20575;-78
2022/02/20 10:38:24;;;;;;;1.55;0.70;;;;;;;24.33;19.43;97646.81;5063733;28;20056;-78
2022/02/20 10:40:55;;;;;;;1.63;0.85;;;;;;;23.76;19.99;97655.22;5060263;28;20062;-79
2022/02/20 10:43:34;;;;;;;1.73;0.93;;;;;;;23.84;20.10;97649.00;5067249;28;20040;-77
2022/02/20 10:46:22;;;;;;;1.45;0.80;;;;;;;23.46;19.93;97653.63;5062494;28;20060;-78
2022/02/20 10:48:52;;;;;;;1.63;0.98;;;;;;;23.26;20.59;97653.72;5064986;28;20485;-77
2022/02/20 10:51:20;;;;;;;1.67;0.80;;;;;;;23.93;20.00;97665.19;5066333;28;20036;-78
2022/02/20 10:53:48;;;;;;;1.73;0.80;;;;;;;23.81;19.94;97657.50;5066304;28;20041;-78
2022/02/20 10:56:15;;;;;;;1.83;0.90;;;;;;;24.18;19.49;97648.44;5070968;28;20032;-78
2022/02/20 10:58:47;;;;;;;1.20;0.73;;;;;;;24.42;19.21;97646.94;5070504;28;20036;-78
2022/02/20 11:01:26;;;;;;;2.03;0.93;;;;;;;23.57;19.62;97647.75;5071913;28;20058;-78
2022/02/20 11:04:21;;;;;;;1.40;0.63;;;;;;;23.64;19.86;97655.97;5068032;28;20555;-78
2022/02/20 11:06:50;;;;;;;1.67;0.80;;;;;;;23.83;19.71;97643.81;5069139;28;20036;-79
2022/02/20 11:09:17;;;;;;;0.93;0.63;;;;;;;24.12;19.43;97635.41;5073380;28;20035;-78
2022/02/20 11:11:50;;;;;;;0.98;0.68;;;;;;;24.01;19.05;97646.94;5058765;28;20075;-78
2022/02/20 11:14:23;;;;;;;1.60;0.75;;;;;;;23.00;20.27;97653.97;5073960;28;20029;-78
2022/02/20 11:16:52;;;;;;;0.98;0.70;;;;;;;23.36;20.09;97649.13;5067692;28;20033;-77
2022/02/20 11:19:24;;;;;;;1.80;1.00;;;;;;;23.68;19.90;97635.03;5074367;28;20033;-78
2022/02/20 11:21:58;;;;;;;2.13;1.10;;;;;;;22.96;20.56;97650.50;5070810;28;20028;-77
2022/02/20 11:24:30;;;;;;;1.65;0.90;;;;;;;23.67;19.71;97635.47;5067849;28;20055;-77
2022/02/20 11:26:59;;;;;;;2.72;0.93;;;;;;;23.98;19.48;97634.59;5055608;28;20033;-78
2022/02/20 11:29:26;;;;;;;1.80;0.90;;;;;;;24.49;18.60;97631.91;5074740;28;20563;-77
2022/02/20 11:31:54;;;;;;;2.55;0.90;;;;;;;24.24;18.93;97635.47;5056724;28;20048;-78
2022/02/20 11:34:21;;;;;;;1.33;0.90;;;;;;;23.73;19.15;97634.50;5065162;28;20060;-78